createdAt,value
2022-12-22T00:00:02.644Z,6.66
2022-12-22T00:03:28.780Z,6.58
2022-12-22T00:06:18.243Z,6.58
2022-12-22T00:09:07.272Z,6.69
2022-12-22T00:11:56.887Z,6.70
2022-12-22T00:14:46.978Z,6.74
2022-12-22T00:17:43.056Z,6.78
2022-12-22T00:20:38.022Z,6.63
2022-12-22T00:23:29.895Z,6.67
2022-12-22T00:26:19.203Z,6.74
2022-12-22T00:29:08.709Z,6.74
2022-12-22T00:31:58.215Z,6.67
2022-12-22T00:34:48.653Z,6.73
2022-12-22T00:37:37.783Z,6.70
2022-12-22T00:40:36.818Z,6.68
2022-12-22T00:43:26.783Z,6.74
2022-12-22T00:46:17.365Z,6.62
2022-12-22T00:49:07.735Z,6.55
2022-12-22T00:51:56.979Z,6.45
2022-12-22T00:54:46.088Z,6.45
2022-12-22T00:57:38.341Z,6.44
2022-12-22T01:00:35.529Z,6.53
2022-12-22T01:03:28.722Z,6.59
2022-12-22T01:06:20.456Z,6.61
2022-12-22T01:09:09.717Z,6.44
2022-12-22T01:11:59.535Z,6.55
2022-12-22T01:14:48.780Z,6.60
2022-12-22T01:17:38.180Z,6.63
2022-12-22T01:20:28.998Z,6.68
2022-12-22T01:23:18.664Z,6.72
2022-12-22T01:26:07.676Z,6.71
2022-12-22T01:28:57.364Z,6.69
2022-12-22T01:31:49.685Z,6.61
2022-12-22T01:34:38.813Z,6.69
2022-12-22T01:37:27.759Z,6.71
2022-12-22T01:40:16.774Z,6.73
2022-12-22T01:43:05.776Z,6.57
2022-12-22T01:45:56.564Z,6.61
2022-12-22T01:48:48.403Z,6.65
2022-12-22T01:51:40.500Z,6.67
2022-12-22T01:54:30.996Z,6.63
2022-12-22T01:57:20.196Z,6.54
2022-12-22T02:00:09.608Z,6.40
2022-12-22T02:03:01.595Z,6.36
2022-12-22T02:05:57.421Z,6.48
2022-12-22T02:08:51.899Z,6.58
2022-12-22T02:11:48.408Z,6.62
2022-12-22T02:14:45.880Z,6.66
2022-12-22T02:17:40.012Z,6.56
2022-12-22T02:20:57.268Z,6.59
2022-12-22T02:24:12.287Z,6.55
2022-12-22T02:27:08.197Z,6.40
2022-12-22T02:30:00.766Z,6.44
2022-12-22T02:32:54.692Z,6.48
2022-12-22T02:35:44.467Z,6.55
2022-12-22T02:38:41.702Z,6.54
2022-12-22T02:41:39.159Z,6.60
2022-12-22T02:44:41.916Z,6.63
2022-12-22T02:47:37.648Z,6.52
2022-12-22T02:50:39.105Z,6.52
2022-12-22T02:53:30.074Z,6.55
2022-12-22T02:56:22.160Z,6.55
2022-12-22T02:59:12.128Z,6.50
2022-12-22T03:02:05.771Z,6.48
2022-12-22T03:04:55.767Z,6.51
2022-12-22T03:07:44.791Z,6.48
2022-12-22T03:10:34.451Z,6.35
2022-12-22T03:13:24.046Z,6.35
2022-12-22T03:16:13.413Z,6.35
2022-12-22T03:19:02.621Z,6.35
2022-12-22T03:21:51.650Z,6.42
2022-12-22T03:24:41.156Z,6.34
2022-12-22T03:27:13.229Z,6.44
2022-12-22T03:29:45.690Z,6.46
2022-12-22T03:32:17.435Z,6.35
2022-12-22T03:34:49.169Z,6.41
2022-12-22T03:37:20.853Z,6.42
2022-12-22T03:39:52.573Z,6.41
2022-12-22T03:42:41.392Z,6.48
2022-12-22T03:45:30.815Z,6.52
2022-12-22T03:48:02.590Z,6.46
2022-12-22T03:50:34.371Z,6.51
2022-12-22T03:53:06.740Z,6.55
2022-12-22T03:55:38.609Z,6.57
2022-12-22T03:58:10.233Z,6.59
2022-12-22T04:00:42.304Z,6.61
2022-12-22T04:03:15.274Z,6.61
2022-12-22T04:05:47.814Z,6.60
2022-12-22T04:08:19.541Z,6.56
2022-12-22T04:11:08.630Z,6.52
2022-12-22T04:13:40.458Z,6.58
2022-12-22T04:16:12.212Z,6.48
2022-12-22T04:18:43.835Z,6.50
2022-12-22T04:21:15.722Z,6.45
2022-12-22T04:23:51.132Z,6.29
2022-12-22T04:26:24.731Z,6.38
2022-12-22T04:28:56.748Z,6.43
2022-12-22T04:31:28.924Z,6.44
2022-12-22T04:34:00.817Z,6.47
2022-12-22T04:36:32.597Z,6.49
2022-12-22T04:39:04.619Z,6.48
2022-12-22T04:41:36.651Z,6.48
2022-12-22T04:44:08.843Z,6.45
2022-12-22T04:46:40.595Z,6.44
2022-12-22T04:49:12.203Z,6.44
2022-12-22T04:51:43.991Z,6.44
2022-12-22T04:54:15.930Z,6.43
2022-12-22T04:56:47.803Z,6.44
2022-12-22T04:59:19.700Z,6.41
2022-12-22T05:01:51.943Z,6.41
2022-12-22T05:04:24.175Z,6.41
2022-12-22T05:06:55.976Z,6.41
2022-12-22T05:09:27.662Z,6.40
2022-12-22T05:11:59.247Z,6.36
2022-12-22T05:14:30.883Z,6.39
2022-12-22T05:17:02.678Z,6.43
2022-12-22T05:19:34.624Z,6.42
2022-12-22T05:22:06.320Z,6.45
2022-12-22T05:24:38.399Z,6.44
2022-12-22T05:27:11.422Z,6.43
2022-12-22T05:29:43.207Z,6.44
2022-12-22T05:32:15.284Z,6.43
2022-12-22T05:34:46.979Z,6.38
2022-12-22T05:37:18.762Z,6.39
2022-12-22T05:39:50.633Z,6.37
2022-12-22T05:45:23.283Z,6.42
2022-12-22T05:47:55.244Z,6.36
2022-12-22T05:50:27.859Z,6.28
2022-12-22T05:53:03.728Z,6.28
2022-12-22T05:55:35.851Z,6.26
2022-12-22T05:58:07.659Z,6.30
2022-12-22T06:00:39.426Z,6.27
2022-12-22T06:03:11.976Z,6.23
2022-12-22T06:05:44.021Z,6.22
2022-12-22T06:08:15.738Z,6.12
2022-12-22T06:10:47.444Z,6.16
2022-12-22T06:13:19.540Z,6.17
2022-12-22T06:15:51.836Z,6.15
2022-12-22T06:18:23.679Z,6.14
2022-12-22T06:20:55.621Z,6.07
2022-12-22T06:23:27.726Z,6.06
2022-12-22T06:26:02.796Z,6.02
2022-12-22T06:28:34.754Z,5.98
2022-12-22T06:31:06.704Z,5.98
2022-12-22T06:33:39.114Z,5.98
2022-12-22T06:36:12.533Z,5.97
2022-12-22T06:38:44.704Z,5.93
2022-12-22T06:41:36.503Z,5.96
2022-12-22T06:44:08.635Z,5.97
2022-12-22T06:46:40.650Z,5.98
2022-12-22T06:49:13.073Z,5.97
2022-12-22T06:51:44.826Z,6.00
2022-12-22T06:54:20.853Z,6.03
2022-12-22T06:56:57.517Z,6.01
2022-12-22T06:59:29.773Z,6.01
2022-12-22T07:02:01.871Z,5.99
2022-12-22T07:04:33.981Z,6.01
2022-12-22T07:07:05.789Z,6.00
2022-12-22T07:09:38.460Z,6.05
2022-12-22T07:12:10.399Z,6.01
2022-12-22T07:14:42.137Z,6.02
2022-12-22T07:17:14.067Z,6.03
2022-12-22T07:19:46.137Z,6.06
2022-12-22T07:22:17.940Z,6.05
2022-12-22T07:24:50.182Z,6.04
2022-12-22T07:27:22.018Z,6.06
2022-12-22T07:29:54.001Z,6.06
2022-12-22T07:32:25.694Z,6.00
2022-12-22T07:35:04.759Z,5.96
2022-12-22T07:37:37.253Z,5.91
2022-12-22T07:40:11.436Z,5.96
2022-12-22T07:42:46.004Z,5.89
2022-12-22T07:45:19.571Z,5.89
2022-12-22T07:47:51.829Z,5.91
2022-12-22T07:50:27.985Z,5.93
2022-12-22T07:53:02.099Z,5.90
2022-12-22T07:55:36.968Z,5.89
2022-12-22T07:58:09.166Z,5.97
2022-12-22T08:00:41.180Z,5.96
2022-12-22T08:03:13.178Z,6.00
2022-12-22T08:05:46.288Z,6.01
2022-12-22T08:08:18.047Z,6.00
2022-12-22T08:10:49.780Z,6.03
2022-12-22T08:13:21.659Z,6.09
2022-12-22T08:15:53.589Z,6.11
2022-12-22T08:18:25.609Z,6.12
2022-12-22T08:20:57.509Z,6.15
2022-12-22T08:23:29.401Z,6.17
2022-12-22T08:26:07.247Z,6.14
2022-12-22T08:28:45.142Z,6.17
2022-12-22T08:31:17.199Z,6.19
2022-12-22T08:33:49.549Z,6.22
2022-12-22T08:36:21.784Z,6.23
2022-12-22T08:38:54.155Z,6.23
2022-12-22T08:41:40.000Z,6.27
2022-12-22T08:44:12.474Z,6.27
2022-12-22T08:46:44.623Z,6.28
2022-12-22T08:49:16.899Z,6.32
2022-12-22T08:51:48.979Z,6.33
2022-12-22T08:54:22.001Z,6.37
2022-12-22T08:56:54.111Z,6.38
2022-12-22T08:59:25.948Z,6.40
2022-12-22T09:01:58.313Z,6.40
2022-12-22T09:04:30.467Z,6.47
2022-12-22T09:07:03.682Z,6.46
2022-12-22T09:09:36.133Z,6.53
2022-12-22T09:12:09.343Z,6.52
2022-12-22T09:14:41.291Z,6.56
2022-12-22T09:17:13.580Z,6.63
2022-12-22T09:19:45.580Z,6.66
2022-12-22T09:22:21.763Z,6.69
2022-12-22T09:24:57.358Z,6.75
2022-12-22T09:27:31.334Z,6.80
2022-12-22T09:30:03.528Z,6.84
2022-12-22T09:32:35.685Z,6.83
2022-12-22T09:35:08.957Z,6.86
2022-12-22T09:37:41.047Z,6.86
2022-12-22T09:40:14.437Z,6.78
2022-12-22T09:42:46.341Z,6.83
2022-12-22T09:45:20.782Z,6.85
2022-12-22T09:47:54.488Z,6.85
2022-12-22T09:50:28.000Z,6.84
2022-12-22T09:53:02.411Z,6.87
2022-12-22T09:55:41.564Z,6.89
2022-12-22T09:58:26.188Z,6.90
2022-12-22T10:01:12.033Z,6.92
2022-12-22T10:03:51.783Z,6.94
2022-12-22T10:06:30.310Z,7.00
2022-12-22T10:09:43.936Z,7.01
2022-12-22T10:12:07.671Z,7.03
2022-12-22T10:14:42.687Z,6.96
2022-12-22T10:17:28.131Z,7.05
2022-12-22T10:20:25.363Z,7.09
2022-12-22T10:22:59.626Z,7.16
2022-12-22T10:26:08.858Z,7.21
2022-12-22T10:28:29.006Z,7.23
2022-12-22T10:31:20.787Z,7.27
2022-12-22T10:33:54.918Z,7.29
2022-12-22T10:36:29.998Z,7.33
2022-12-22T10:39:05.272Z,7.37
2022-12-22T10:41:39.314Z,7.38
2022-12-22T10:44:21.454Z,7.37
2022-12-22T10:46:54.994Z,7.41
2022-12-22T10:49:31.842Z,7.43
2022-12-22T10:52:15.747Z,7.47
2022-12-22T10:54:48.289Z,7.50
2022-12-22T10:57:31.694Z,7.47
2022-12-22T11:00:23.273Z,7.46
2022-12-22T11:02:57.845Z,7.52
2022-12-22T11:05:30.817Z,7.49
2022-12-22T11:08:13.757Z,7.56
2022-12-22T11:10:46.795Z,7.58
2022-12-22T11:13:39.050Z,7.58
2022-12-22T11:16:19.655Z,7.61
2022-12-22T11:19:21.571Z,7.61
2022-12-22T11:22:01.516Z,7.64
2022-12-22T11:24:40.425Z,7.68
2022-12-22T11:27:28.912Z,7.72
2022-12-22T11:30:14.228Z,7.76
2022-12-22T11:33:03.592Z,7.79
2022-12-22T11:35:52.303Z,7.78
2022-12-22T11:38:38.512Z,7.80
2022-12-22T11:41:23.067Z,7.79
2022-12-22T11:44:09.205Z,7.77
2022-12-22T11:46:49.702Z,7.80
2022-12-22T11:49:44.167Z,7.76
2022-12-22T11:52:31.027Z,7.76
2022-12-22T11:55:12.698Z,7.75
2022-12-22T11:57:56.822Z,7.77
2022-12-22T12:01:11.853Z,7.76
2022-12-22T12:03:57.989Z,7.78
2022-12-22T12:06:42.190Z,7.78
2022-12-22T12:09:33.595Z,7.82
2022-12-22T12:12:13.768Z,7.82
2022-12-22T12:14:56.831Z,7.85
2022-12-22T12:17:30.054Z,7.88
2022-12-22T12:20:19.137Z,7.88
2022-12-22T12:23:08.580Z,7.91
2022-12-22T12:25:45.299Z,7.90
2022-12-22T12:28:25.224Z,7.91
2022-12-22T12:31:00.385Z,7.93
2022-12-22T12:33:43.315Z,7.96
2022-12-22T12:36:24.506Z,7.98
2022-12-22T12:39:07.907Z,7.98
2022-12-22T12:41:48.256Z,7.97
2022-12-22T12:44:24.043Z,8.00
2022-12-22T12:47:08.002Z,7.99
2022-12-22T12:50:22.263Z,8.01
2022-12-22T12:53:17.032Z,8.02
2022-12-22T12:55:57.345Z,8.05
2022-12-22T12:58:51.619Z,8.03
2022-12-22T13:02:01.868Z,8.00
2022-12-22T13:05:13.594Z,8.04
2022-12-22T13:08:29.437Z,8.01
2022-12-22T13:15:01.372Z,8.04
2022-12-22T13:17:49.091Z,8.02
2022-12-22T13:20:25.875Z,8.05
2022-12-22T13:23:00.101Z,8.03
2022-12-22T13:25:46.410Z,8.06
2022-12-22T13:28:21.147Z,8.09
2022-12-22T13:30:59.222Z,8.05
2022-12-22T13:33:37.222Z,8.09
2022-12-22T13:36:21.424Z,8.11
2022-12-22T13:39:02.701Z,8.12
2022-12-22T13:41:36.508Z,8.12
2022-12-22T13:44:13.705Z,8.12
2022-12-22T13:46:47.292Z,8.13
2022-12-22T13:49:51.535Z,8.14
2022-12-22T13:52:17.467Z,8.17
2022-12-22T13:54:49.492Z,8.15
2022-12-22T13:57:26.140Z,8.14
2022-12-22T13:59:58.008Z,8.16
2022-12-22T14:02:35.324Z,8.15
2022-12-22T14:05:10.762Z,8.14
2022-12-22T14:07:57.869Z,8.06
2022-12-22T14:10:38.622Z,8.11
2022-12-22T14:13:19.214Z,8.13
2022-12-22T14:16:02.751Z,8.11
2022-12-22T14:18:36.905Z,8.12
2022-12-22T14:21:10.710Z,8.13
2022-12-22T14:23:44.501Z,8.10
2022-12-22T14:26:21.539Z,8.14
2022-12-22T14:28:57.062Z,8.13
2022-12-22T14:31:28.866Z,8.11
2022-12-22T14:34:05.346Z,8.15
2022-12-22T14:36:45.841Z,8.16
2022-12-22T14:39:26.083Z,8.13
2022-12-22T14:42:00.970Z,8.12
2022-12-22T14:44:37.724Z,8.14
2022-12-22T14:47:18.313Z,8.16
2022-12-22T14:49:53.948Z,8.17
2022-12-22T14:52:36.033Z,8.15
2022-12-22T14:55:23.941Z,8.16
2022-12-22T14:57:59.676Z,8.15
2022-12-22T15:00:37.881Z,8.13
2022-12-22T15:03:31.657Z,8.11
2022-12-22T15:06:34.248Z,8.15
2022-12-22T15:10:12.500Z,8.17
2022-12-22T15:12:19.936Z,8.18
2022-12-22T15:14:52.556Z,8.18
2022-12-22T15:17:26.520Z,8.16
2022-12-22T15:20:00.325Z,8.16
2022-12-22T15:22:32.549Z,8.16
2022-12-22T15:25:07.808Z,8.16
2022-12-22T15:27:39.749Z,8.17
2022-12-22T15:30:14.703Z,8.18
2022-12-22T15:32:46.915Z,8.17
2022-12-22T15:35:22.586Z,8.13
2022-12-22T15:37:54.376Z,8.15
2022-12-22T15:40:27.883Z,8.14
2022-12-22T15:42:59.698Z,8.16
2022-12-22T15:45:32.325Z,8.18
2022-12-22T15:48:06.056Z,8.18
2022-12-22T15:50:42.707Z,8.18
2022-12-22T15:53:19.820Z,8.19
2022-12-22T15:55:54.801Z,8.21
2022-12-22T15:58:30.481Z,8.19
2022-12-22T16:01:03.041Z,8.19
2022-12-22T16:03:36.027Z,8.18
2022-12-22T16:06:14.208Z,8.21
2022-12-22T16:08:50.342Z,8.21
2022-12-22T16:11:22.659Z,8.21
2022-12-22T16:13:55.131Z,8.24
2022-12-22T16:16:27.251Z,8.26
2022-12-22T16:18:59.186Z,8.22
2022-12-22T16:21:33.561Z,8.25
2022-12-22T16:24:07.366Z,8.28
2022-12-22T16:26:39.815Z,8.24
2022-12-22T16:29:18.216Z,8.23
2022-12-22T16:31:50.168Z,8.22
2022-12-22T16:34:22.152Z,8.23
2022-12-22T16:36:54.060Z,8.24
2022-12-22T16:39:25.915Z,8.21
2022-12-22T16:42:00.499Z,8.21
2022-12-22T16:47:25.455Z,8.24
2022-12-22T16:49:57.908Z,8.20
2022-12-22T16:52:38.679Z,8.26
2022-12-22T16:55:17.385Z,8.22
2022-12-22T16:57:49.617Z,8.16
2022-12-22T17:00:24.508Z,8.21
2022-12-22T17:02:58.537Z,8.17
2022-12-22T17:05:44.519Z,8.22
2022-12-22T17:08:23.397Z,8.22
2022-12-22T17:10:57.651Z,8.14
2022-12-22T17:13:29.641Z,8.19
2022-12-22T17:16:01.783Z,8.25
2022-12-22T17:18:35.962Z,8.19
2022-12-22T17:21:07.986Z,8.20
2022-12-22T17:23:44.258Z,8.19
2022-12-22T17:26:18.896Z,8.25
2022-12-22T17:28:52.272Z,8.25
2022-12-22T17:31:26.750Z,8.27
2022-12-22T17:33:59.170Z,8.27
2022-12-22T17:36:39.642Z,8.16
2022-12-22T17:39:16.515Z,8.10
2022-12-22T17:41:54.328Z,8.12
2022-12-22T17:44:28.728Z,8.05
2022-12-22T17:47:00.995Z,8.08
2022-12-22T17:49:33.116Z,8.09
2022-12-22T17:52:05.535Z,8.11
2022-12-22T17:54:37.438Z,8.11
2022-12-22T17:57:16.857Z,8.10
2022-12-22T17:59:48.755Z,8.13
2022-12-22T18:02:24.178Z,8.14
2022-12-22T18:04:56.722Z,8.08
2022-12-22T18:07:29.180Z,8.08
2022-12-22T18:10:04.672Z,8.09
2022-12-22T18:12:36.744Z,8.11
2022-12-22T18:15:17.692Z,8.11
2022-12-22T18:17:49.410Z,8.07
2022-12-22T18:20:23.478Z,8.14
2022-12-22T18:23:02.055Z,8.16
2022-12-22T18:25:35.589Z,8.15
2022-12-22T18:28:13.705Z,8.18
2022-12-22T18:30:45.752Z,8.20
2022-12-22T18:33:17.556Z,8.19
2022-12-22T18:35:50.175Z,8.23
2022-12-22T18:38:28.206Z,8.15
2022-12-22T18:41:00.478Z,8.19
2022-12-22T18:43:32.362Z,8.15
2022-12-22T18:46:04.107Z,8.06
2022-12-22T18:48:35.822Z,8.02
2022-12-22T18:51:17.539Z,8.01
2022-12-22T18:53:50.377Z,8.05
2022-12-22T18:56:20.585Z,8.07
2022-12-22T18:58:52.302Z,8.08
2022-12-22T19:01:27.164Z,8.03
2022-12-22T19:04:00.030Z,8.07
2022-12-22T19:06:32.217Z,8.06
2022-12-22T19:09:04.021Z,8.09
2022-12-22T19:11:36.910Z,8.07
2022-12-22T19:14:15.739Z,8.08
2022-12-22T19:16:48.643Z,8.12
2022-12-22T19:19:22.425Z,8.14
2022-12-22T19:21:55.214Z,8.18
2022-12-22T19:24:27.435Z,8.16
2022-12-22T19:26:59.458Z,8.10
2022-12-22T19:29:32.275Z,8.11
2022-12-22T19:32:03.215Z,8.10
2022-12-22T19:34:36.215Z,8.08
2022-12-22T19:37:09.442Z,8.11
2022-12-22T19:39:41.234Z,8.13
2022-12-22T19:42:16.318Z,8.09
2022-12-22T19:44:48.764Z,8.12
2022-12-22T19:47:24.369Z,8.09
2022-12-22T19:49:57.417Z,8.12
2022-12-22T19:52:30.276Z,8.14
2022-12-22T19:55:02.636Z,8.13
2022-12-22T19:57:40.908Z,8.19
2022-12-22T20:00:22.619Z,8.11
2022-12-22T20:02:58.914Z,8.12
2022-12-22T20:05:35.131Z,8.10
2022-12-22T20:08:08.016Z,8.09
2022-12-22T20:10:43.080Z,8.11
2022-12-22T20:13:19.133Z,8.14
2022-12-22T20:15:51.963Z,8.17
2022-12-22T20:18:27.538Z,8.10
2022-12-22T20:21:04.074Z,8.15
2022-12-22T20:23:40.400Z,8.12
2022-12-22T20:26:19.519Z,8.15
2022-12-22T20:28:53.889Z,8.18
2022-12-22T20:31:27.172Z,8.21
2022-12-22T20:34:01.239Z,8.18
2022-12-22T20:36:35.207Z,8.15
2022-12-22T20:39:16.561Z,8.10
2022-12-22T20:41:52.879Z,8.11
2022-12-22T20:44:28.212Z,8.09
2022-12-22T20:47:01.029Z,8.04
2022-12-22T20:49:32.801Z,7.99
2022-12-22T20:52:05.005Z,8.02
2022-12-22T20:54:38.031Z,8.03
2022-12-22T20:57:14.059Z,8.06
2022-12-22T20:59:55.591Z,8.06
2022-12-22T21:02:29.067Z,8.04
2022-12-22T21:05:02.294Z,7.99
2022-12-22T21:07:34.363Z,8.00
2022-12-22T21:10:07.433Z,7.99
2022-12-22T21:12:39.111Z,7.97
2022-12-22T21:15:16.405Z,7.96
2022-12-22T21:17:52.774Z,7.96
2022-12-22T21:20:30.812Z,7.99
2022-12-22T21:23:02.645Z,7.95
2022-12-22T21:25:34.724Z,7.92
2022-12-22T21:28:10.597Z,7.95
2022-12-22T21:30:42.444Z,7.90
2022-12-22T21:33:15.620Z,7.95
2022-12-22T21:35:47.594Z,7.90
2022-12-22T21:38:21.437Z,7.92
2022-12-22T21:40:53.589Z,7.87
2022-12-22T21:43:25.353Z,7.86
2022-12-22T21:45:57.554Z,7.87
2022-12-22T21:48:29.904Z,7.84
2022-12-22T21:51:01.710Z,7.82
2022-12-22T21:53:33.470Z,7.84
2022-12-22T21:56:10.751Z,7.87
2022-12-22T21:58:42.793Z,7.81
2022-12-22T22:01:16.505Z,7.76
2022-12-22T22:03:49.333Z,7.65
2022-12-22T22:06:21.202Z,7.68
2022-12-22T22:08:53.318Z,7.61
2022-12-22T22:11:27.383Z,7.56
2022-12-22T22:13:59.444Z,7.52
2022-12-22T22:16:31.286Z,7.53
2022-12-22T22:19:03.646Z,7.57
2022-12-22T22:21:36.149Z,7.53
2022-12-22T22:24:09.557Z,7.56
2022-12-22T22:26:45.964Z,7.55
2022-12-22T22:29:17.981Z,7.52
2022-12-22T22:31:50.045Z,7.54
2022-12-22T22:34:21.860Z,7.53
2022-12-22T22:36:54.565Z,7.47
2022-12-22T22:39:26.624Z,7.57
2022-12-22T22:41:58.456Z,7.54
2022-12-22T22:44:30.101Z,7.51
2022-12-22T22:47:01.867Z,7.44
2022-12-22T22:49:33.512Z,7.39
2022-12-22T22:52:05.683Z,7.32
2022-12-22T22:54:37.806Z,7.23
2022-12-22T22:57:09.913Z,7.20
2022-12-22T22:59:41.832Z,7.16
2022-12-22T23:02:16.142Z,7.15
2022-12-22T23:04:48.660Z,7.20
2022-12-22T23:07:20.460Z,7.06
2022-12-22T23:09:52.659Z,7.12
2022-12-22T23:12:24.497Z,7.07
2022-12-22T23:14:56.266Z,6.98
2022-12-22T23:17:28.007Z,6.95
2022-12-22T23:19:59.844Z,6.94
2022-12-22T23:22:31.587Z,6.95
2022-12-22T23:25:03.328Z,6.88
2022-12-22T23:27:35.258Z,6.85
2022-12-22T23:30:09.229Z,6.91
2022-12-22T23:32:41.008Z,6.85
2022-12-22T23:35:13.119Z,6.90
2022-12-22T23:37:45.014Z,6.89
2022-12-22T23:40:50.545Z,6.84
2022-12-22T23:43:12.092Z,6.79
2022-12-22T23:45:44.156Z,6.75
2022-12-22T23:48:15.866Z,6.65
2022-12-22T23:50:49.726Z,6.62
2022-12-22T23:53:21.733Z,6.57
2022-12-22T23:55:53.631Z,6.55
2022-12-22T23:58:26.123Z,6.54
